sensor_id;sensor_type;location;lat;lon;timestamp;P1;durP1;ratioP1;P2;durP2;ratioP2
7587;SDS011;3835;48.850;8.938;2024-03-02T00:01:25;18.63;;;17.07;;
7587;SDS011;3835;48.850;8.938;2024-03-02T00:03:52;16.87;;;15.60;;
7587;SDS011;3835;48.850;8.938;2024-03-02T00:06:19;16.93;;;15.63;;
7587;SDS011;3835;48.850;8.938;2024-03-02T00:08:47;18.20;;;16.80;;
7587;SDS011;3835;48.850;8.938;2024-03-02T00:11:14;17.80;;;16.40;;
7587;SDS011;3835;48.850;8.938;2024-03-02T00:13:41;17.80;;;16.37;;
7587;SDS011;3835;48.850;8.938;2024-03-02T00:16:08;16.83;;;15.33;;
7587;SDS011;3835;48.850;8.938;2024-03-02T00:18:37;17.73;;;16.23;;
7587;SDS011;3835;48.850;8.938;2024-03-02T00:21:05;18.80;;;17.23;;
7587;SDS011;3835;48.850;8.938;2024-03-02T00:23:34;17.33;;;15.73;;
7587;SDS011;3835;48.850;8.938;2024-03-02T00:26:01;18.90;;;17.33;;
7587;SDS011;3835;48.850;8.938;2024-03-02T00:28:29;17.43;;;16.00;;
7587;SDS011;3835;48.850;8.938;2024-03-02T00:30:59;18.23;;;16.73;;
7587;SDS011;3835;48.850;8.938;2024-03-02T00:33:30;17.23;;;15.90;;
7587;SDS011;3835;48.850;8.938;2024-03-02T00:35:59;17.90;;;16.40;;
7587;SDS011;3835;48.850;8.938;2024-03-02T00:38:28;19.50;;;17.90;;
7587;SDS011;3835;48.850;8.938;2024-03-02T00:40:55;17.77;;;16.37;;
7587;SDS011;3835;48.850;8.938;2024-03-02T00:46:08;18.60;;;17.10;;
7587;SDS011;3835;48.850;8.938;2024-03-02T00:48:37;20.07;;;18.37;;
7587;SDS011;3835;48.850;8.938;2024-03-02T00:51:06;18.37;;;16.90;;
7587;SDS011;3835;48.850;8.938;2024-03-02T00:53:34;17.93;;;16.53;;
7587;SDS011;3835;48.850;8.938;2024-03-02T00:56:01;19.13;;;17.63;;
7587;SDS011;3835;48.850;8.938;2024-03-02T00:58:28;19.37;;;17.97;;
7587;SDS011;3835;48.850;8.938;2024-03-02T01:00:55;19.67;;;18.13;;
7587;SDS011;3835;48.850;8.938;2024-03-02T01:03:22;19.63;;;17.97;;
7587;SDS011;3835;48.850;8.938;2024-03-02T01:05:49;18.30;;;16.80;;
7587;SDS011;3835;48.850;8.938;2024-03-02T01:08:17;19.17;;;17.47;;
7587;SDS011;3835;48.850;8.938;2024-03-02T01:10:44;19.87;;;18.27;;
7587;SDS011;3835;48.850;8.938;2024-03-02T01:13:11;18.43;;;16.97;;
7587;SDS011;3835;48.850;8.938;2024-03-02T01:15:38;18.80;;;17.23;;
7587;SDS011;3835;48.850;8.938;2024-03-02T01:18:05;18.53;;;16.97;;
7587;SDS011;3835;48.850;8.938;2024-03-02T01:20:32;19.67;;;17.80;;
7587;SDS011;3835;48.850;8.938;2024-03-02T01:22:59;17.93;;;16.33;;
7587;SDS011;3835;48.850;8.938;2024-03-02T01:25:27;19.67;;;17.93;;
7587;SDS011;3835;48.850;8.938;2024-03-02T01:27:53;19.90;;;18.23;;
7587;SDS011;3835;48.850;8.938;2024-03-02T01:30:20;20.90;;;19.10;;
7587;SDS011;3835;48.850;8.938;2024-03-02T01:32:47;22.97;;;21.07;;
7587;SDS011;3835;48.850;8.938;2024-03-02T01:35:14;21.57;;;19.67;;
7587;SDS011;3835;48.850;8.938;2024-03-02T01:37:41;19.90;;;18.30;;
7587;SDS011;3835;48.850;8.938;2024-03-02T01:40:08;20.30;;;18.70;;
7587;SDS011;3835;48.850;8.938;2024-03-02T01:42:38;21.03;;;19.00;;
7587;SDS011;3835;48.850;8.938;2024-03-02T01:45:05;22.00;;;20.13;;
7587;SDS011;3835;48.850;8.938;2024-03-02T01:47:33;22.47;;;20.67;;
7587;SDS011;3835;48.850;8.938;2024-03-02T01:50:00;20.43;;;18.73;;
7587;SDS011;3835;48.850;8.938;2024-03-02T01:52:27;20.07;;;18.37;;
7587;SDS011;3835;48.850;8.938;2024-03-02T01:54:55;21.53;;;19.73;;
7587;SDS011;3835;48.850;8.938;2024-03-02T01:57:22;19.03;;;17.33;;
7587;SDS011;3835;48.850;8.938;2024-03-02T01:59:50;20.93;;;19.10;;
7587;SDS011;3835;48.850;8.938;2024-03-02T02:02:18;21.13;;;19.43;;
7587;SDS011;3835;48.850;8.938;2024-03-02T02:04:45;20.70;;;18.90;;
7587;SDS011;3835;48.850;8.938;2024-03-02T02:07:12;20.37;;;18.47;;
7587;SDS011;3835;48.850;8.938;2024-03-02T02:09:39;21.63;;;19.80;;
7587;SDS011;3835;48.850;8.938;2024-03-02T02:12:07;21.87;;;20.00;;
7587;SDS011;3835;48.850;8.938;2024-03-02T02:14:34;21.40;;;19.50;;
7587;SDS011;3835;48.850;8.938;2024-03-02T02:17:02;21.10;;;19.13;;
7587;SDS011;3835;48.850;8.938;2024-03-02T02:19:29;21.30;;;19.43;;
7587;SDS011;3835;48.850;8.938;2024-03-02T02:21:57;20.40;;;18.50;;
7587;SDS011;3835;48.850;8.938;2024-03-02T02:24:24;20.77;;;18.97;;
7587;SDS011;3835;48.850;8.938;2024-03-02T02:26:51;23.43;;;21.33;;
7587;SDS011;3835;48.850;8.938;2024-03-02T02:29:18;25.97;;;23.83;;
7587;SDS011;3835;48.850;8.938;2024-03-02T02:31:45;27.50;;;25.30;;
7587;SDS011;3835;48.850;8.938;2024-03-02T02:34:13;25.10;;;22.83;;
7587;SDS011;3835;48.850;8.938;2024-03-02T02:36:40;23.43;;;21.33;;
7587;SDS011;3835;48.850;8.938;2024-03-02T02:39:10;21.43;;;19.50;;
7587;SDS011;3835;48.850;8.938;2024-03-02T02:41:41;21.27;;;19.10;;
7587;SDS011;3835;48.850;8.938;2024-03-02T02:44:08;21.03;;;19.20;;
7587;SDS011;3835;48.850;8.938;2024-03-02T02:46:37;22.17;;;20.20;;
7587;SDS011;3835;48.850;8.938;2024-03-02T02:49:04;22.50;;;20.40;;
7587;SDS011;3835;48.850;8.938;2024-03-02T02:51:31;23.07;;;21.00;;
7587;SDS011;3835;48.850;8.938;2024-03-02T02:53:58;22.90;;;20.90;;
7587;SDS011;3835;48.850;8.938;2024-03-02T02:56:26;21.73;;;19.63;;
7587;SDS011;3835;48.850;8.938;2024-03-02T02:58:53;22.23;;;19.97;;
7587;SDS011;3835;48.850;8.938;2024-03-02T03:01:20;20.10;;;18.13;;
7587;SDS011;3835;48.850;8.938;2024-03-02T03:03:46;20.83;;;18.93;;
7587;SDS011;3835;48.850;8.938;2024-03-02T03:06:13;22.10;;;20.20;;
7587;SDS011;3835;48.850;8.938;2024-03-02T03:08:40;21.83;;;19.70;;
7587;SDS011;3835;48.850;8.938;2024-03-02T03:11:07;20.70;;;18.70;;
7587;SDS011;3835;48.850;8.938;2024-03-02T03:13:35;21.17;;;19.27;;
7587;SDS011;3835;48.850;8.938;2024-03-02T03:16:02;21.07;;;18.97;;
7587;SDS011;3835;48.850;8.938;2024-03-02T03:18:30;20.83;;;18.73;;
7587;SDS011;3835;48.850;8.938;2024-03-02T03:20:57;21.93;;;19.80;;
7587;SDS011;3835;48.850;8.938;2024-03-02T03:23:24;21.03;;;19.07;;
7587;SDS011;3835;48.850;8.938;2024-03-02T03:25:51;22.13;;;20.03;;
7587;SDS011;3835;48.850;8.938;2024-03-02T03:28:18;21.60;;;19.40;;
7587;SDS011;3835;48.850;8.938;2024-03-02T03:30:46;22.90;;;20.77;;
7587;SDS011;3835;48.850;8.938;2024-03-02T03:33:13;23.13;;;20.83;;
7587;SDS011;3835;48.850;8.938;2024-03-02T03:35:40;21.27;;;19.27;;
7587;SDS011;3835;48.850;8.938;2024-03-02T03:38:07;22.23;;;20.23;;
7587;SDS011;3835;48.850;8.938;2024-03-02T03:40:34;21.70;;;19.60;;
7587;SDS011;3835;48.850;8.938;2024-03-02T03:43:00;22.03;;;20.03;;
7587;SDS011;3835;48.850;8.938;2024-03-02T03:45:27;22.70;;;20.57;;
7587;SDS011;3835;48.850;8.938;2024-03-02T03:47:56;23.00;;;20.80;;
7587;SDS011;3835;48.850;8.938;2024-03-02T03:50:23;23.97;;;21.93;;
7587;SDS011;3835;48.850;8.938;2024-03-02T03:52:50;22.33;;;20.17;;
7587;SDS011;3835;48.850;8.938;2024-03-02T03:55:17;21.70;;;19.67;;
7587;SDS011;3835;48.850;8.938;2024-03-02T03:57:44;22.77;;;20.67;;
7587;SDS011;3835;48.850;8.938;2024-03-02T04:00:11;23.20;;;21.07;;
7587;SDS011;3835;48.850;8.938;2024-03-02T04:02:39;22.33;;;20.27;;
7587;SDS011;3835;48.850;8.938;2024-03-02T04:05:07;23.77;;;21.20;;
7587;SDS011;3835;48.850;8.938;2024-03-02T04:07:35;24.70;;;22.40;;
7587;SDS011;3835;48.850;8.938;2024-03-02T04:10:06;23.67;;;21.37;;
7587;SDS011;3835;48.850;8.938;2024-03-02T04:12:35;25.13;;;22.50;;
7587;SDS011;3835;48.850;8.938;2024-03-02T04:15:03;24.37;;;21.87;;
7587;SDS011;3835;48.850;8.938;2024-03-02T04:17:31;23.00;;;20.70;;
7587;SDS011;3835;48.850;8.938;2024-03-02T04:20:00;24.50;;;22.10;;
7587;SDS011;3835;48.850;8.938;2024-03-02T04:22:32;24.73;;;22.57;;
7587;SDS011;3835;48.850;8.938;2024-03-02T04:25:00;22.67;;;20.57;;
7587;SDS011;3835;48.850;8.938;2024-03-02T04:27:29;23.03;;;20.73;;
7587;SDS011;3835;48.850;8.938;2024-03-02T04:29:56;23.13;;;20.67;;
7587;SDS011;3835;48.850;8.938;2024-03-02T04:32:23;25.30;;;22.60;;
7587;SDS011;3835;48.850;8.938;2024-03-02T04:34:50;26.43;;;23.90;;
7587;SDS011;3835;48.850;8.938;2024-03-02T04:37:17;25.17;;;22.87;;
7587;SDS011;3835;48.850;8.938;2024-03-02T04:39:45;23.47;;;21.27;;
7587;SDS011;3835;48.850;8.938;2024-03-02T04:42:12;26.17;;;23.67;;
7587;SDS011;3835;48.850;8.938;2024-03-02T04:44:39;25.23;;;22.87;;
7587;SDS011;3835;48.850;8.938;2024-03-02T04:47:06;23.90;;;21.43;;
7587;SDS011;3835;48.850;8.938;2024-03-02T04:49:32;24.93;;;22.17;;
7587;SDS011;3835;48.850;8.938;2024-03-02T04:51:59;25.50;;;23.00;;
7587;SDS011;3835;48.850;8.938;2024-03-02T04:54:26;22.77;;;20.50;;
7587;SDS011;3835;48.850;8.938;2024-03-02T04:56:54;25.13;;;22.70;;
7587;SDS011;3835;48.850;8.938;2024-03-02T04:59:21;24.63;;;22.17;;
7587;SDS011;3835;48.850;8.938;2024-03-02T05:01:48;25.33;;;22.87;;
7587;SDS011;3835;48.850;8.938;2024-03-02T05:04:15;24.03;;;21.53;;
7587;SDS011;3835;48.850;8.938;2024-03-02T05:06:42;23.33;;;20.93;;
7587;SDS011;3835;48.850;8.938;2024-03-02T05:09:09;23.77;;;21.27;;
7587;SDS011;3835;48.850;8.938;2024-03-02T05:11:36;23.70;;;21.40;;
7587;SDS011;3835;48.850;8.938;2024-03-02T05:14:25;21.50;;;19.20;;
7587;SDS011;3835;48.850;8.938;2024-03-02T05:16:52;22.20;;;19.90;;
7587;SDS011;3835;48.850;8.938;2024-03-02T05:19:19;21.87;;;19.73;;
7587;SDS011;3835;48.850;8.938;2024-03-02T05:21:46;22.00;;;19.80;;
7587;SDS011;3835;48.850;8.938;2024-03-02T05:24:13;20.70;;;18.47;;
7587;SDS011;3835;48.850;8.938;2024-03-02T05:26:40;23.27;;;20.73;;
7587;SDS011;3835;48.850;8.938;2024-03-02T05:29:07;24.53;;;22.23;;
7587;SDS011;3835;48.850;8.938;2024-03-02T05:31:35;22.63;;;20.43;;
7587;SDS011;3835;48.850;8.938;2024-03-02T05:34:02;23.93;;;21.53;;
7587;SDS011;3835;48.850;8.938;2024-03-02T05:36:30;23.50;;;21.20;;
7587;SDS011;3835;48.850;8.938;2024-03-02T05:38:57;23.37;;;21.03;;
7587;SDS011;3835;48.850;8.938;2024-03-02T05:41:24;24.27;;;21.90;;
7587;SDS011;3835;48.850;8.938;2024-03-02T05:43:51;22.93;;;20.63;;
7587;SDS011;3835;48.850;8.938;2024-03-02T05:46:18;23.37;;;21.20;;
7587;SDS011;3835;48.850;8.938;2024-03-02T05:48:46;21.80;;;19.73;;
7587;SDS011;3835;48.850;8.938;2024-03-02T05:51:13;24.57;;;22.13;;
7587;SDS011;3835;48.850;8.938;2024-03-02T05:53:40;24.90;;;22.43;;
7587;SDS011;3835;48.850;8.938;2024-03-02T05:56:08;23.27;;;20.87;;
7587;SDS011;3835;48.850;8.938;2024-03-02T05:58:34;25.87;;;20.93;;
7587;SDS011;3835;48.850;8.938;2024-03-02T06:01:14;22.57;;;20.17;;
7587;SDS011;3835;48.850;8.938;2024-03-02T06:03:43;21.90;;;19.80;;
7587;SDS011;3835;48.850;8.938;2024-03-02T06:06:11;24.13;;;19.47;;
7587;SDS011;3835;48.850;8.938;2024-03-02T06:08:38;22.23;;;19.67;;
7587;SDS011;3835;48.850;8.938;2024-03-02T06:11:04;22.03;;;19.47;;
7587;SDS011;3835;48.850;8.938;2024-03-02T06:13:31;22.77;;;19.87;;
7587;SDS011;3835;48.850;8.938;2024-03-02T06:15:58;23.37;;;20.90;;
7587;SDS011;3835;48.850;8.938;2024-03-02T06:18:25;22.97;;;20.50;;
7587;SDS011;3835;48.850;8.938;2024-03-02T06:20:53;23.27;;;20.33;;
7587;SDS011;3835;48.850;8.938;2024-03-02T06:23:21;24.67;;;21.37;;
7587;SDS011;3835;48.850;8.938;2024-03-02T06:25:47;22.97;;;19.63;;
7587;SDS011;3835;48.850;8.938;2024-03-02T06:28:14;24.87;;;22.30;;
7587;SDS011;3835;48.850;8.938;2024-03-02T06:30:41;24.17;;;21.93;;
7587;SDS011;3835;48.850;8.938;2024-03-02T06:33:08;24.93;;;22.37;;
7587;SDS011;3835;48.850;8.938;2024-03-02T06:35:35;24.87;;;22.43;;
7587;SDS011;3835;48.850;8.938;2024-03-02T06:38:02;24.53;;;22.03;;
7587;SDS011;3835;48.850;8.938;2024-03-02T06:40:30;26.40;;;23.67;;
7587;SDS011;3835;48.850;8.938;2024-03-02T06:42:57;25.57;;;23.13;;
7587;SDS011;3835;48.850;8.938;2024-03-02T06:45:24;25.13;;;22.83;;
7587;SDS011;3835;48.850;8.938;2024-03-02T06:47:51;25.03;;;22.83;;
7587;SDS011;3835;48.850;8.938;2024-03-02T06:50:18;23.73;;;21.27;;
7587;SDS011;3835;48.850;8.938;2024-03-02T06:52:45;25.13;;;22.47;;
7587;SDS011;3835;48.850;8.938;2024-03-02T06:55:12;23.47;;;21.17;;
7587;SDS011;3835;48.850;8.938;2024-03-02T06:57:40;23.50;;;21.00;;
7587;SDS011;3835;48.850;8.938;2024-03-02T07:00:07;23.73;;;21.30;;
7587;SDS011;3835;48.850;8.938;2024-03-02T07:02:35;22.43;;;20.13;;
7587;SDS011;3835;48.850;8.938;2024-03-02T07:05:02;22.50;;;20.50;;
7587;SDS011;3835;48.850;8.938;2024-03-02T07:07:29;23.50;;;21.37;;
7587;SDS011;3835;48.850;8.938;2024-03-02T07:09:56;22.07;;;20.00;;
7587;SDS011;3835;48.850;8.938;2024-03-02T07:12:23;21.70;;;19.70;;
7587;SDS011;3835;48.850;8.938;2024-03-02T07:14:51;22.03;;;19.83;;
7587;SDS011;3835;48.850;8.938;2024-03-02T07:17:36;20.30;;;18.30;;
7587;SDS011;3835;48.850;8.938;2024-03-02T07:20:03;20.90;;;19.00;;
7587;SDS011;3835;48.850;8.938;2024-03-02T07:22:31;22.47;;;20.47;;
7587;SDS011;3835;48.850;8.938;2024-03-02T07:24:58;21.87;;;20.03;;
7587;SDS011;3835;48.850;8.938;2024-03-02T07:27:25;20.13;;;18.27;;
7587;SDS011;3835;48.850;8.938;2024-03-02T07:29:54;21.63;;;19.70;;
7587;SDS011;3835;48.850;8.938;2024-03-02T07:32:21;21.80;;;19.90;;
7587;SDS011;3835;48.850;8.938;2024-03-02T07:34:48;21.73;;;19.70;;
7587;SDS011;3835;48.850;8.938;2024-03-02T07:37:16;20.87;;;18.87;;
7587;SDS011;3835;48.850;8.938;2024-03-02T07:39:43;21.77;;;19.77;;
7587;SDS011;3835;48.850;8.938;2024-03-02T07:42:10;20.23;;;18.23;;
7587;SDS011;3835;48.850;8.938;2024-03-02T07:44:38;22.37;;;20.27;;
7587;SDS011;3835;48.850;8.938;2024-03-02T07:47:06;21.23;;;19.33;;
7587;SDS011;3835;48.850;8.938;2024-03-02T07:49:33;22.47;;;20.17;;
7587;SDS011;3835;48.850;8.938;2024-03-02T07:52:00;20.67;;;18.57;;
7587;SDS011;3835;48.850;8.938;2024-03-02T07:54:27;21.47;;;19.57;;
7587;SDS011;3835;48.850;8.938;2024-03-02T07:56:54;22.40;;;20.30;;
7587;SDS011;3835;48.850;8.938;2024-03-02T07:59:21;21.23;;;19.23;;
7587;SDS011;3835;48.850;8.938;2024-03-02T08:01:48;21.10;;;19.23;;
7587;SDS011;3835;48.850;8.938;2024-03-02T08:04:17;20.93;;;18.93;;
7587;SDS011;3835;48.850;8.938;2024-03-02T08:06:45;20.73;;;18.73;;
7587;SDS011;3835;48.850;8.938;2024-03-02T08:09:12;22.07;;;19.73;;
7587;SDS011;3835;48.850;8.938;2024-03-02T08:11:39;20.13;;;18.13;;
7587;SDS011;3835;48.850;8.938;2024-03-02T08:14:05;21.47;;;19.57;;
7587;SDS011;3835;48.850;8.938;2024-03-02T08:16:32;22.40;;;20.10;;
7587;SDS011;3835;48.850;8.938;2024-03-02T08:18:59;22.93;;;20.73;;
7587;SDS011;3835;48.850;8.938;2024-03-02T08:21:28;21.07;;;19.17;;
7587;SDS011;3835;48.850;8.938;2024-03-02T08:23:55;21.33;;;19.33;;
7587;SDS011;3835;48.850;8.938;2024-03-02T08:26:23;19.67;;;17.87;;
7587;SDS011;3835;48.850;8.938;2024-03-02T08:28:50;20.47;;;18.57;;
7587;SDS011;3835;48.850;8.938;2024-03-02T08:31:17;20.50;;;18.60;;
7587;SDS011;3835;48.850;8.938;2024-03-02T08:33:44;21.33;;;19.43;;
7587;SDS011;3835;48.850;8.938;2024-03-02T08:36:10;20.53;;;18.83;;
7587;SDS011;3835;48.850;8.938;2024-03-02T08:38:39;21.00;;;19.03;;
7587;SDS011;3835;48.850;8.938;2024-03-02T08:41:06;19.37;;;17.50;;
7587;SDS011;3835;48.850;8.938;2024-03-02T08:43:33;19.50;;;17.80;;
7587;SDS011;3835;48.850;8.938;2024-03-02T08:46:00;18.90;;;17.20;;
7587;SDS011;3835;48.850;8.938;2024-03-02T08:48:27;19.10;;;17.50;;
7587;SDS011;3835;48.850;8.938;2024-03-02T08:50:54;19.50;;;17.80;;
7587;SDS011;3835;48.850;8.938;2024-03-02T08:53:21;18.07;;;16.57;;
7587;SDS011;3835;48.850;8.938;2024-03-02T08:55:49;17.97;;;16.47;;
7587;SDS011;3835;48.850;8.938;2024-03-02T08:58:16;18.63;;;17.07;;
7587;SDS011;3835;48.850;8.938;2024-03-02T09:00:43;16.80;;;15.40;;
7587;SDS011;3835;48.850;8.938;2024-03-02T09:03:10;19.13;;;17.53;;
7587;SDS011;3835;48.850;8.938;2024-03-02T09:05:37;18.37;;;16.77;;
7587;SDS011;3835;48.850;8.938;2024-03-02T09:08:04;18.33;;;16.87;;
7587;SDS011;3835;48.850;8.938;2024-03-02T09:10:31;18.40;;;17.10;;
7587;SDS011;3835;48.850;8.938;2024-03-02T09:13:00;17.73;;;16.30;;
7587;SDS011;3835;48.850;8.938;2024-03-02T09:15:27;17.57;;;16.17;;
7587;SDS011;3835;48.850;8.938;2024-03-02T09:17:54;18.47;;;17.13;;
7587;SDS011;3835;48.850;8.938;2024-03-02T09:20:21;16.83;;;15.53;;
7587;SDS011;3835;48.850;8.938;2024-03-02T09:22:48;19.57;;;17.93;;
7587;SDS011;3835;48.850;8.938;2024-03-02T09:25:15;21.10;;;19.63;;
7587;SDS011;3835;48.850;8.938;2024-03-02T09:27:42;18.30;;;16.60;;
7587;SDS011;3835;48.850;8.938;2024-03-02T09:30:10;18.90;;;17.40;;
7587;SDS011;3835;48.850;8.938;2024-03-02T09:32:38;18.57;;;17.37;;
7587;SDS011;3835;48.850;8.938;2024-03-02T09:35:05;16.83;;;15.63;;
7587;SDS011;3835;48.850;8.938;2024-03-02T09:37:34;17.07;;;15.87;;
7587;SDS011;3835;48.850;8.938;2024-03-02T09:40:00;16.23;;;15.13;;
7587;SDS011;3835;48.850;8.938;2024-03-02T09:42:27;15.47;;;14.43;;
7587;SDS011;3835;48.850;8.938;2024-03-02T09:44:55;16.27;;;15.17;;
7587;SDS011;3835;48.850;8.938;2024-03-02T09:47:24;16.10;;;14.90;;
7587;SDS011;3835;48.850;8.938;2024-03-02T09:49:51;15.90;;;14.90;;
7587;SDS011;3835;48.850;8.938;2024-03-02T09:52:18;14.07;;;13.07;;
7587;SDS011;3835;48.850;8.938;2024-03-02T09:54:47;14.57;;;13.50;;
7587;SDS011;3835;48.850;8.938;2024-03-02T09:57:14;16.13;;;15.10;;
7587;SDS011;3835;48.850;8.938;2024-03-02T09:59:41;15.83;;;14.83;;
7587;SDS011;3835;48.850;8.938;2024-03-02T10:02:07;16.20;;;15.10;;
7587;SDS011;3835;48.850;8.938;2024-03-02T10:04:36;14.80;;;13.80;;
7587;SDS011;3835;48.850;8.938;2024-03-02T10:07:09;16.33;;;15.33;;
7587;SDS011;3835;48.850;8.938;2024-03-02T10:09:37;16.33;;;15.23;;
7587;SDS011;3835;48.850;8.938;2024-03-02T10:12:06;16.10;;;15.10;;
7587;SDS011;3835;48.850;8.938;2024-03-02T10:14:33;15.63;;;14.63;;
7587;SDS011;3835;48.850;8.938;2024-03-02T10:17:03;16.13;;;15.23;;
7587;SDS011;3835;48.850;8.938;2024-03-02T10:19:31;16.80;;;15.70;;
7587;SDS011;3835;48.850;8.938;2024-03-02T10:22:01;16.17;;;15.17;;
7587;SDS011;3835;48.850;8.938;2024-03-02T10:24:35;16.47;;;15.07;;
7587;SDS011;3835;48.850;8.938;2024-03-02T10:27:06;15.83;;;14.83;;
7587;SDS011;3835;48.850;8.938;2024-03-02T10:29:38;15.77;;;14.87;;
7587;SDS011;3835;48.850;8.938;2024-03-02T10:32:06;14.67;;;13.77;;
7587;SDS011;3835;48.850;8.938;2024-03-02T10:34:36;14.63;;;13.83;;
7587;SDS011;3835;48.850;8.938;2024-03-02T10:37:04;13.37;;;12.67;;
7587;SDS011;3835;48.850;8.938;2024-03-02T10:39:32;14.20;;;13.50;;
7587;SDS011;3835;48.850;8.938;2024-03-02T10:42:01;14.50;;;13.70;;
7587;SDS011;3835;48.850;8.938;2024-03-02T10:44:30;12.63;;;11.93;;
7587;SDS011;3835;48.850;8.938;2024-03-02T10:46:59;13.03;;;12.17;;
7587;SDS011;3835;48.850;8.938;2024-03-02T10:49:29;12.97;;;12.27;;
7587;SDS011;3835;48.850;8.938;2024-03-02T10:51:57;14.27;;;13.30;;
7587;SDS011;3835;48.850;8.938;2024-03-02T10:54:25;14.00;;;13.20;;
7587;SDS011;3835;48.850;8.938;2024-03-02T10:56:55;13.40;;;12.70;;
7587;SDS011;3835;48.850;8.938;2024-03-02T10:59:27;13.23;;;12.53;;
7587;SDS011;3835;48.850;8.938;2024-03-02T11:01:56;13.47;;;12.67;;
7587;SDS011;3835;48.850;8.938;2024-03-02T11:04:24;15.23;;;14.40;;
7587;SDS011;3835;48.850;8.938;2024-03-02T11:06:52;13.90;;;13.20;;
7587;SDS011;3835;48.850;8.938;2024-03-02T11:09:27;12.23;;;11.67;;
7587;SDS011;3835;48.850;8.938;2024-03-02T11:11:58;14.63;;;13.93;;
7587;SDS011;3835;48.850;8.938;2024-03-02T11:14:30;13.03;;;12.43;;
7587;SDS011;3835;48.850;8.938;2024-03-02T11:16:58;13.77;;;13.17;;
7587;SDS011;3835;48.850;8.938;2024-03-02T11:19:28;12.90;;;12.30;;
7587;SDS011;3835;48.850;8.938;2024-03-02T11:21:57;12.20;;;11.70;;
7587;SDS011;3835;48.850;8.938;2024-03-02T11:24:30;12.60;;;12.07;;
7587;SDS011;3835;48.850;8.938;2024-03-02T11:27:00;12.53;;;11.97;;
7587;SDS011;3835;48.850;8.938;2024-03-02T11:29:43;13.50;;;12.80;;
7587;SDS011;3835;48.850;8.938;2024-03-02T11:32:13;12.53;;;12.03;;
7587;SDS011;3835;48.850;8.938;2024-03-02T11:34:46;12.53;;;11.97;;
7587;SDS011;3835;48.850;8.938;2024-03-02T11:37:14;12.27;;;11.70;;
7587;SDS011;3835;48.850;8.938;2024-03-02T11:39:44;13.33;;;12.77;;
7587;SDS011;3835;48.850;8.938;2024-03-02T11:42:12;12.57;;;12.07;;
7587;SDS011;3835;48.850;8.938;2024-03-02T11:44:41;11.20;;;10.70;;
7587;SDS011;3835;48.850;8.938;2024-03-02T11:47:10;12.03;;;11.53;;
7587;SDS011;3835;48.850;8.938;2024-03-02T11:49:39;12.20;;;11.60;;
7587;SDS011;3835;48.850;8.938;2024-03-02T11:52:08;11.97;;;11.47;;
7587;SDS011;3835;48.850;8.938;2024-03-02T11:54:36;11.70;;;11.20;;
7587;SDS011;3835;48.850;8.938;2024-03-02T11:57:07;11.07;;;10.57;;
7587;SDS011;3835;48.850;8.938;2024-03-02T11:59:34;11.20;;;10.70;;
7587;SDS011;3835;48.850;8.938;2024-03-02T12:02:01;11.63;;;11.13;;
7587;SDS011;3835;48.850;8.938;2024-03-02T12:04:28;11.63;;;11.13;;
7587;SDS011;3835;48.850;8.938;2024-03-02T12:06:57;11.67;;;11.23;;
7587;SDS011;3835;48.850;8.938;2024-03-02T12:09:28;11.40;;;10.80;;
7587;SDS011;3835;48.850;8.938;2024-03-02T12:12:02;10.60;;;10.20;;
7587;SDS011;3835;48.850;8.938;2024-03-02T12:14:32;12.00;;;11.50;;
7587;SDS011;3835;48.850;8.938;2024-03-02T12:17:00;11.83;;;11.33;;
7587;SDS011;3835;48.850;8.938;2024-03-02T12:19:28;10.90;;;10.50;;
7587;SDS011;3835;48.850;8.938;2024-03-02T12:21:55;12.67;;;12.17;;
7587;SDS011;3835;48.850;8.938;2024-03-02T12:24:22;11.20;;;10.70;;
7587;SDS011;3835;48.850;8.938;2024-03-02T12:26:50;11.43;;;10.93;;
7587;SDS011;3835;48.850;8.938;2024-03-02T12:29:18;11.77;;;11.37;;
7587;SDS011;3835;48.850;8.938;2024-03-02T12:31:48;11.33;;;10.83;;
7587;SDS011;3835;48.850;8.938;2024-03-02T12:34:16;11.90;;;11.40;;
7587;SDS011;3835;48.850;8.938;2024-03-02T12:36:45;11.23;;;10.83;;
7587;SDS011;3835;48.850;8.938;2024-03-02T12:39:14;10.77;;;10.27;;
7587;SDS011;3835;48.850;8.938;2024-03-02T12:41:41;11.20;;;10.80;;
7587;SDS011;3835;48.850;8.938;2024-03-02T12:44:08;12.47;;;11.97;;
7587;SDS011;3835;48.850;8.938;2024-03-02T12:46:35;11.47;;;10.97;;
7587;SDS011;3835;48.850;8.938;2024-03-02T12:49:08;11.47;;;10.97;;
7587;SDS011;3835;48.850;8.938;2024-03-02T12:51:37;10.47;;;10.07;;
7587;SDS011;3835;48.850;8.938;2024-03-02T12:54:05;11.40;;;10.90;;
7587;SDS011;3835;48.850;8.938;2024-03-02T12:56:32;10.23;;;9.83;;
7587;SDS011;3835;48.850;8.938;2024-03-02T12:58:59;12.33;;;11.53;;
7587;SDS011;3835;48.850;8.938;2024-03-02T13:01:26;10.73;;;10.23;;
7587;SDS011;3835;48.850;8.938;2024-03-02T13:03:53;10.77;;;10.27;;
7587;SDS011;3835;48.850;8.938;2024-03-02T13:06:23;12.13;;;11.63;;
7587;SDS011;3835;48.850;8.938;2024-03-02T13:08:53;10.70;;;10.27;;
7587;SDS011;3835;48.850;8.938;2024-03-02T13:11:20;12.03;;;11.53;;
7587;SDS011;3835;48.850;8.938;2024-03-02T13:13:48;12.07;;;11.57;;
7587;SDS011;3835;48.850;8.938;2024-03-02T13:16:15;10.90;;;10.40;;
7587;SDS011;3835;48.850;8.938;2024-03-02T13:18:44;10.37;;;9.97;;
7587;SDS011;3835;48.850;8.938;2024-03-02T13:21:11;11.97;;;11.47;;
7587;SDS011;3835;48.850;8.938;2024-03-02T13:23:39;11.60;;;11.10;;
7587;SDS011;3835;48.850;8.938;2024-03-02T13:26:06;10.87;;;10.47;;
7587;SDS011;3835;48.850;8.938;2024-03-02T13:28:35;11.50;;;11.00;;
7587;SDS011;3835;48.850;8.938;2024-03-02T13:31:03;10.73;;;10.30;;
7587;SDS011;3835;48.850;8.938;2024-03-02T13:33:30;11.50;;;11.00;;
7587;SDS011;3835;48.850;8.938;2024-03-02T13:35:58;11.60;;;10.97;;
7587;SDS011;3835;48.850;8.938;2024-03-02T13:38:24;10.47;;;9.97;;
7587;SDS011;3835;48.850;8.938;2024-03-02T13:40:53;11.37;;;10.77;;
7587;SDS011;3835;48.850;8.938;2024-03-02T13:43:20;10.93;;;10.43;;
7587;SDS011;3835;48.850;8.938;2024-03-02T13:45:48;13.07;;;12.37;;
7587;SDS011;3835;48.850;8.938;2024-03-02T13:48:17;11.17;;;10.77;;
7587;SDS011;3835;48.850;8.938;2024-03-02T13:50:43;10.50;;;10.10;;
7587;SDS011;3835;48.850;8.938;2024-03-02T13:53:11;12.60;;;12.10;;
7587;SDS011;3835;48.850;8.938;2024-03-02T13:55:38;10.57;;;10.17;;
7587;SDS011;3835;48.850;8.938;2024-03-02T13:58:08;11.03;;;10.53;;
7587;SDS011;3835;48.850;8.938;2024-03-02T14:00:35;11.30;;;10.80;;
7587;SDS011;3835;48.850;8.938;2024-03-02T14:03:03;11.63;;;11.13;;
7587;SDS011;3835;48.850;8.938;2024-03-02T14:05:30;12.27;;;11.77;;
7587;SDS011;3835;48.850;8.938;2024-03-02T14:07:57;11.27;;;10.87;;
7587;SDS011;3835;48.850;8.938;2024-03-02T14:10:25;11.77;;;11.27;;
7587;SDS011;3835;48.850;8.938;2024-03-02T14:12:53;11.67;;;11.17;;
7587;SDS011;3835;48.850;8.938;2024-03-02T14:15:21;10.77;;;10.37;;
7587;SDS011;3835;48.850;8.938;2024-03-02T14:17:48;10.43;;;10.03;;
7587;SDS011;3835;48.850;8.938;2024-03-02T14:20:15;12.20;;;11.70;;
7587;SDS011;3835;48.850;8.938;2024-03-02T14:22:46;11.43;;;10.93;;
7587;SDS011;3835;48.850;8.938;2024-03-02T14:25:14;10.50;;;10.10;;
7587;SDS011;3835;48.850;8.938;2024-03-02T14:27:41;10.93;;;10.53;;
7587;SDS011;3835;48.850;8.938;2024-03-02T14:30:08;11.73;;;11.23;;
7587;SDS011;3835;48.850;8.938;2024-03-02T14:32:37;12.27;;;11.77;;
7587;SDS011;3835;48.850;8.938;2024-03-02T14:35:04;11.20;;;10.70;;
7587;SDS011;3835;48.850;8.938;2024-03-02T14:37:34;11.33;;;10.93;;
7587;SDS011;3835;48.850;8.938;2024-03-02T14:40:01;11.43;;;11.03;;
7587;SDS011;3835;48.850;8.938;2024-03-02T14:42:31;11.83;;;11.33;;
7587;SDS011;3835;48.850;8.938;2024-03-02T14:44:59;12.60;;;12.10;;
7587;SDS011;3835;48.850;8.938;2024-03-02T14:47:28;11.43;;;10.93;;
7587;SDS011;3835;48.850;8.938;2024-03-02T14:49:56;10.93;;;10.50;;
7587;SDS011;3835;48.850;8.938;2024-03-02T14:52:23;10.37;;;9.97;;
7587;SDS011;3835;48.850;8.938;2024-03-02T14:54:50;11.33;;;10.93;;